Time,TemperatureF,DewpointF,PressureIn,WindDirection,WindDirectionDegrees,WindSpeedMPH,WindSpeedGustMPH,Humidity,HourlyPrecipIn,Conditions,Clouds,dailyrainin,SoftwareType,DateUTC
2013-02-12 00:11:00,43.0,32.0,30.04,East,99,2.0,3.0,66,0.00,,,0.00,weatherlink.com 1.10,2013-02-12 06:11:00,
2013-02-12 00:25:00,42.4,32.0,30.03,East,84,2.0,3.0,67,0.00,,,0.00,weatherlink.com 1.10,2013-02-12 06:25:00,
2013-02-12 00:41:00,42.2,33.0,30.02,East,88,0.0,3.0,69,0.00,,,0.00,weatherlink.com 1.10,2013-02-12 06:41:00,
2013-02-12 00:56:00,42.6,33.0,30.03,East,88,0.0,0.0,70,0.00,,,0.00,weatherlink.com 1.10,2013-02-12 06:56:00,
2013-02-12 01:11:00,42.5,33.0,30.03,East,88,0.0,0.0,70,0.00,,,0.00,weatherlink.com 1.10,2013-02-12 07:11:00,
2013-02-12 01:26:00,42.8,34.0,30.04,East,88,0.0,0.0,70,0.00,,,0.00,weatherlink.com 1.10,2013-02-12 07:26:00,
2013-02-12 01:42:00,43.0,35.0,30.04,East,88,0.0,0.0,72,0.00,,,0.00,weatherlink.com 1.10,2013-02-12 07:42:00,
2013-02-12 01:57:00,42.9,35.0,30.04,East,88,0.0,0.0,73,0.00,,,0.00,weatherlink.com 1.10,2013-02-12 07:57:00,
2013-02-12 02:12:00,42.4,35.0,30.03,East,88,0.0,0.0,75,0.00,,,0.00,weatherlink.com 1.10,2013-02-12 08:12:00,
2013-02-12 02:26:00,42.6,35.0,30.03,East,88,1.0,3.0,73,0.00,,,0.00,weatherlink.com 1.10,2013-02-12 08:26:00,
2013-02-12 02:41:00,42.2,35.0,30.02,NNE,25,3.0,4.0,75,0.00,,,0.00,weatherlink.com 1.10,2013-02-12 08:41:00,
2013-02-12 02:56:00,43.1,35.0,30.00,NE,42,5.0,8.0,73,0.00,,,0.00,weatherlink.com 1.10,2013-02-12 08:56:00,
2013-02-12 03:12:00,43.4,35.0,30.01,NE,51,0.0,2.0,72,0.00,,,0.00,weatherlink.com 1.10,2013-02-12 09:12:00,
2013-02-12 03:27:00,43.6,35.0,30.02,NE,51,0.0,0.0,72,0.00,,,0.00,weatherlink.com 1.10,2013-02-12 09:27:00,
2013-02-12 03:42:00,43.8,35.0,30.02,NE,51,0.0,0.0,72,0.00,,,0.00,weatherlink.com 1.10,2013-02-12 09:42:00,
2013-02-12 03:57:00,43.7,36.0,30.00,ESE,105,0.0,3.0,73,0.00,,,0.00,weatherlink.com 1.10,2013-02-12 09:57:00,
2013-02-12 04:12:00,43.7,36.0,30.00,East,92,3.0,3.0,73,0.00,,,0.00,weatherlink.com 1.10,2013-02-12 10:12:00,
2013-02-12 04:27:00,43.6,37.0,30.01,SE,126,0.0,3.0,76,0.00,,,0.00,weatherlink.com 1.10,2013-02-12 10:27:00,
2013-02-12 04:42:00,43.3,37.0,30.01,SE,126,0.0,0.0,78,0.02,,,0.02,weatherlink.com 1.10,2013-02-12 10:42:00,
2013-02-12 04:57:00,42.7,38.0,30.01,SE,126,0.0,0.0,83,0.04,,,0.02,weatherlink.com 1.10,2013-02-12 10:57:00,
2013-02-12 05:12:00,42.1,39.0,29.97,ENE,69,4.0,8.0,87,0.06,,,0.04,weatherlink.com 1.10,2013-02-12 11:12:00,
2013-02-12 05:27:00,42.2,39.0,29.95,ENE,71,10.0,13.0,88,0.07,,,0.06,weatherlink.com 1.10,2013-02-12 11:27:00,
2013-02-12 05:42:00,42.6,39.0,29.96,ENE,61,7.0,8.0,87,0.08,,,0.08,weatherlink.com 1.10,2013-02-12 11:42:00,
2013-02-12 05:57:00,42.2,39.0,29.93,ENE,59,7.0,12.0,89,0.08,,,0.10,weatherlink.com 1.10,2013-02-12 11:57:00,
2013-02-12 06:12:00,42.5,40.0,29.94,ENE,57,2.0,13.0,90,0.07,,,0.11,weatherlink.com 1.10,2013-02-12 12:12:00,
2013-02-12 06:27:00,42.9,40.0,30.04,WSW,250,0.0,6.0,90,0.06,,,0.12,weatherlink.com 1.10,2013-02-12 12:27:00,
2013-02-12 06:42:00,42.1,40.0,29.98,East,92,3.0,6.0,91,0.06,,,0.14,weatherlink.com 1.10,2013-02-12 12:42:00,
2013-02-12 06:57:00,41.9,40.0,29.95,ENE,62,7.0,10.0,92,0.06,,,0.16,weatherlink.com 1.10,2013-02-12 12:57:00,
2013-02-12 07:12:00,41.8,40.0,29.95,East,87,7.0,9.0,93,0.06,,,0.17,weatherlink.com 1.10,2013-02-12 13:12:00,
2013-02-12 07:27:00,41.7,40.0,29.93,ENE,71,7.0,14.0,93,0.06,,,0.18,weatherlink.com 1.10,2013-02-12 13:27:00,
2013-02-12 07:42:00,41.6,40.0,29.91,East,80,9.0,13.0,92,0.06,,,0.20,weatherlink.com 1.10,2013-02-12 13:42:00,
2013-02-12 07:57:00,41.8,40.0,29.91,ENE,61,7.0,17.0,92,0.05,,,0.21,weatherlink.com 1.10,2013-02-12 13:57:00,
2013-02-12 08:12:00,42.2,40.0,29.93,ENE,61,8.0,15.0,91,0.05,,,0.22,weatherlink.com 1.10,2013-02-12 14:12:00,
2013-02-12 08:27:00,42.4,40.0,29.93,NE,43,7.0,13.0,91,0.05,,,0.23,weatherlink.com 1.10,2013-02-12 14:27:00,
2013-02-12 08:42:00,42.4,40.0,29.91,ENE,70,9.0,14.0,92,0.04,,,0.24,weatherlink.com 1.10,2013-02-12 14:42:00,
2013-02-12 08:57:00,42.3,40.0,29.93,East,82,2.0,17.0,92,0.05,,,0.26,weatherlink.com 1.10,2013-02-12 14:57:00,
2013-02-12 09:12:00,42.3,40.0,29.97,NNE,30,3.0,6.0,92,0.04,,,0.26,weatherlink.com 1.10,2013-02-12 15:12:00,
2013-02-12 09:27:00,42.0,40.0,29.97,NNE,32,2.0,4.0,93,0.05,,,0.28,weatherlink.com 1.10,2013-02-12 15:27:00,
2013-02-12 09:42:00,42.1,40.0,29.97,NNE,31,3.0,5.0,93,0.05,,,0.29,weatherlink.com 1.10,2013-02-12 15:42:00,
2013-02-12 09:57:00,41.5,40.0,29.98,North,5,4.0,6.0,94,0.04,,,0.30,weatherlink.com 1.10,2013-02-12 15:57:00,
2013-02-12 10:13:00,41.2,40.0,29.98,NNE,29,5.0,10.0,94,0.06,,,0.32,weatherlink.com 1.10,2013-02-12 16:13:00,
2013-02-12 10:27:00,41.1,40.0,29.98,NNE,29,7.0,11.0,94,0.06,,,0.34,weatherlink.com 1.10,2013-02-12 16:27:00,
2013-02-12 10:42:00,40.9,39.0,29.99,NNE,30,4.0,10.0,94,0.06,,,0.35,weatherlink.com 1.10,2013-02-12 16:42:00,
2013-02-12 10:58:00,41.0,40.0,29.98,NNE,20,9.0,12.0,95,0.06,,,0.36,weatherlink.com 1.10,2013-02-12 16:58:00,
2013-02-12 11:12:00,41.1,40.0,29.97,NNE,28,7.0,12.0,95,0.06,,,0.38,weatherlink.com 1.10,2013-02-12 17:12:00,
2013-02-12 11:27:00,41.4,40.0,29.97,NE,38,6.0,13.0,95,0.05,,,0.39,weatherlink.com 1.10,2013-02-12 17:27:00,
2013-02-12 11:42:00,41.5,40.0,29.97,NE,37,6.0,13.0,94,0.05,,,0.40,weatherlink.com 1.10,2013-02-12 17:42:00,
2013-02-12 11:57:00,41.6,40.0,29.96,NE,54,5.0,13.0,94,0.06,,,0.42,weatherlink.com 1.10,2013-02-12 17:57:00,
2013-02-12 12:12:00,41.9,40.0,29.95,ENE,64,10.0,15.0,94,0.05,,,0.43,weatherlink.com 1.10,2013-02-12 18:12:00,
2013-02-12 12:43:00,42.0,40.0,29.93,NE,40,8.0,15.0,94,0.06,,,0.46,weatherlink.com 1.10,2013-02-12 18:43:00,
2013-02-12 12:57:00,41.8,40.0,29.93,NNE,28,9.0,13.0,94,0.04,,,0.46,weatherlink.com 1.10,2013-02-12 18:57:00,
2013-02-12 13:12:00,41.6,40.0,29.92,NE,39,3.0,15.0,94,0.05,,,0.48,weatherlink.com 1.10,2013-02-12 19:12:00,
2013-02-12 13:28:00,41.4,40.0,29.92,NNE,32,4.0,13.0,94,0.05,,,0.49,weatherlink.com 1.10,2013-02-12 19:28:00,
2013-02-12 13:43:00,41.2,40.0,29.91,NE,55,9.0,13.0,94,0.04,,,0.50,weatherlink.com 1.10,2013-02-12 19:43:00,
2013-02-12 13:58:00,41.2,40.0,29.91,NNE,13,6.0,12.0,94,0.04,,,0.51,weatherlink.com 1.10,2013-02-12 19:58:00,
2013-02-12 14:13:00,40.9,39.0,29.91,NNE,32,6.0,13.0,94,0.04,,,0.52,weatherlink.com 1.10,2013-02-12 20:13:00,
2013-02-12 14:28:00,40.5,39.0,29.91,NNE,32,6.0,17.0,94,0.03,,,0.52,weatherlink.com 1.10,2013-02-12 20:28:00,
2013-02-12 14:43:00,40.6,39.0,29.90,NE,41,6.0,15.0,94,0.03,,,0.53,weatherlink.com 1.10,2013-02-12 20:43:00,
2013-02-12 14:58:00,40.4,39.0,29.90,NNE,15,5.0,15.0,95,0.03,,,0.54,weatherlink.com 1.10,2013-02-12 20:58:00,
2013-02-12 15:13:00,40.5,39.0,29.91,NNE,19,5.0,12.0,95,0.02,,,0.54,weatherlink.com 1.10,2013-02-12 21:13:00,
2013-02-12 15:28:00,40.3,39.0,29.90,NE,34,4.0,16.0,94,0.03,,,0.55,weatherlink.com 1.10,2013-02-12 21:28:00,
2013-02-12 15:43:00,40.2,39.0,29.91,NNE,19,8.0,13.0,94,0.03,,,0.56,weatherlink.com 1.10,2013-02-12 21:43:00,
2013-02-12 15:58:00,40.1,39.0,29.91,NNE,18,5.0,9.0,94,0.02,,,0.56,weatherlink.com 1.10,2013-02-12 21:58:00,
2013-02-12 16:13:00,40.0,39.0,29.92,North,9,4.0,9.0,95,0.02,,,0.57,weatherlink.com 1.10,2013-02-12 22:13:00,
2013-02-12 16:28:00,40.0,39.0,29.92,NNE,17,5.0,9.0,95,0.03,,,0.58,weatherlink.com 1.10,2013-02-12 22:28:00,
2013-02-12 16:43:00,40.0,39.0,29.92,North,9,2.0,8.0,95,0.02,,,0.58,weatherlink.com 1.10,2013-02-12 22:43:00,
2013-02-12 16:58:00,39.8,39.0,29.92,NNE,19,6.0,10.0,95,0.02,,,0.58,weatherlink.com 1.10,2013-02-12 22:58:00,
2013-02-12 17:13:00,39.6,38.0,29.93,North,360,4.0,11.0,95,0.01,,,0.58,weatherlink.com 1.10,2013-02-12 23:13:00,
2013-02-12 17:28:00,39.5,38.0,29.93,NNE,13,2.0,10.0,95,0.01,,,0.59,weatherlink.com 1.10,2013-02-12 23:28:00,
2013-02-12 17:43:00,39.5,38.0,29.94,North,355,3.0,11.0,95,0.01,,,0.59,weatherlink.com 1.10,2013-02-12 23:43:00,
2013-02-12 17:58:00,39.5,38.0,29.94,North,355,5.0,10.0,95,0.02,,,0.60,weatherlink.com 1.10,2013-02-12 23:58:00,
2013-02-12 18:13:00,39.3,38.0,29.95,NNW,339,3.0,8.0,95,0.02,,,0.60,weatherlink.com 1.10,2013-02-13 00:13:00,
2013-02-12 18:28:00,39.0,38.0,29.95,North,360,8.0,10.0,95,0.01,,,0.60,weatherlink.com 1.10,2013-02-13 00:28:00,
2013-02-12 18:43:00,38.2,37.0,29.96,NNE,23,12.0,15.0,94,0.01,,,0.60,weatherlink.com 1.10,2013-02-13 00:43:00,
2013-02-12 18:58:00,37.7,36.0,29.97,North,9,11.0,18.0,94,0.00,,,0.60,weatherlink.com 1.10,2013-02-13 00:58:00,
2013-02-12 19:13:00,37.5,36.0,29.98,North,349,5.0,14.0,94,0.00,,,0.60,weatherlink.com 1.10,2013-02-13 01:13:00,
2013-02-12 19:28:00,36.8,35.0,29.99,North,5,9.0,14.0,93,0.00,,,0.60,weatherlink.com 1.10,2013-02-13 01:28:00,
2013-02-12 19:43:00,36.5,35.0,30.00,North,5,7.0,11.0,94,0.00,,,0.60,weatherlink.com 1.10,2013-02-13 01:43:00,
2013-02-12 19:58:00,36.6,35.0,30.01,NW,325,3.0,12.0,94,0.00,,,0.60,weatherlink.com 1.10,2013-02-13 01:58:00,
2013-02-12 20:13:00,36.3,35.0,30.01,North,360,7.0,14.0,93,0.01,,,0.61,weatherlink.com 1.10,2013-02-13 02:13:00,
2013-02-12 20:28:00,36.2,35.0,30.02,NNE,16,8.0,12.0,94,0.01,,,0.61,weatherlink.com 1.10,2013-02-13 02:28:00,
2013-02-12 20:58:00,36.5,35.0,30.03,NNW,348,8.0,12.0,94,0.01,,,0.61,weatherlink.com 1.10,2013-02-13 02:58:00,
2013-02-12 21:14:00,36.7,35.0,30.04,North,349,8.0,10.0,94,0.00,,,0.61,weatherlink.com 1.10,2013-02-13 03:14:00,
2013-02-12 21:28:00,36.7,35.0,30.04,North,360,9.0,12.0,94,0.00,,,0.61,weatherlink.com 1.10,2013-02-13 03:28:00,
2013-02-12 21:43:00,36.6,35.0,30.04,NNW,346,10.0,14.0,94,0.00,,,0.61,weatherlink.com 1.10,2013-02-13 03:43:00,
2013-02-12 21:59:00,36.5,35.0,30.04,North,349,7.0,13.0,94,0.00,,,0.61,weatherlink.com 1.10,2013-02-13 03:59:00,
2013-02-12 22:13:00,36.5,35.0,30.05,North,355,8.0,14.0,93,0.00,,,0.61,weatherlink.com 1.10,2013-02-13 04:13:00,
2013-02-12 22:29:00,36.5,35.0,30.05,NNW,338,5.0,12.0,93,0.00,,,0.61,weatherlink.com 1.10,2013-02-13 04:29:00,
2013-02-12 22:43:00,36.5,35.0,30.05,NNW,333,7.0,10.0,93,0.00,,,0.61,weatherlink.com 1.10,2013-02-13 04:43:00,
2013-02-12 22:59:00,36.4,35.0,30.06,NNW,329,7.0,11.0,93,0.00,,,0.61,weatherlink.com 1.10,2013-02-13 04:59:00,
2013-02-12 23:13:00,36.4,35.0,30.06,NNW,336,8.0,11.0,93,0.00,,,0.61,weatherlink.com 1.10,2013-02-13 05:13:00,
2013-02-12 23:28:00,36.4,35.0,30.07,NNW,339,8.0,11.0,93,0.00,,,0.61,weatherlink.com 1.10,2013-02-13 05:28:00,
2013-02-12 23:43:00,36.5,35.0,30.07,NNW,327,7.0,9.0,93,0.00,,,0.61,weatherlink.com 1.10,2013-02-13 05:43:00,
2013-02-12 23:58:00,36.4,35.0,30.07,NNW,329,7.0,9.0,93,0.00,,,0.61,weatherlink.com 1.10,2013-02-13 05:58:00,